»·PEaware :: VRD1056 KPHX-KSLC

VRD1056 :: KPHX-KSLC

FLIGHT INFORMATION

Flight Status: Arrived
Operator:
Virgin America
More flights by this operator :: More flights under this callsign
Pilot: Josh G. (4619)
Aircraft: AIRBUS A320
(A320)
More flights by this aircraft type
Origin: KPHX Phoenix Sky Harbor Intl
United States
Destination: KSLC Salt Lake City Intl
United States
More flights between these airports :: More routes between these airports
Route: +SNOBL5 GCN BCE QWENN5
File this flight plan on PilotEdge
Remarks:
Altitude:
(Current/Filed)
34,000ft
Speed:
(Current/Filed)
320kts
Departed: 04-Jan-18 07:22 PM
Arrived: 04-Jan-18 08:35 PM
Distance/Time
Traveled:
441nm/1:13
Distance/Time
To Go:
Arrived

Flight Plot

Page will automatically refresh every two minutes.

Flight plan parsing failed; only flown route is shown


Map Options




Map Legend


Flown Route
Filed Route
Departure Airport
Arrival Airport
Navaid (VOR, NDB)
Fix

Horizontal Profiles

Position Reports

Time Latitude Longitude Heading Altitude Ground
Speed
04-Jan-18 19:01 33.437849 -111.997364 97 1118ft 0kts
04-Jan-18 19:02 33.437849 -111.997364 97 1118ft 0kts
04-Jan-18 19:03 33.437849 -111.997364 97 1118ft 0kts
04-Jan-18 19:04 33.437849 -111.997364 97 1118ft 0kts
04-Jan-18 19:05 33.437849 -111.997364 97 1118ft 0kts
04-Jan-18 19:06 33.437849 -111.997364 97 1118ft 0kts
04-Jan-18 19:07 33.437849 -111.997364 97 1118ft 0kts
04-Jan-18 19:08 33.437849 -111.997364 97 1118ft 0kts
04-Jan-18 19:09 33.437849 -111.997364 97 1118ft 0kts
04-Jan-18 19:10 33.437849 -111.997364 97 1118ft 0kts
04-Jan-18 19:11 33.437849 -111.997364 97 1118ft 0kts
04-Jan-18 19:12 33.437849 -111.997364 97 1118ft 0kts
04-Jan-18 19:13 33.437849 -111.997364 97 1118ft 0kts
04-Jan-18 19:14 33.437849 -111.997364 97 1118ft 0kts
04-Jan-18 19:15 33.437849 -111.997364 97 1118ft 0kts
04-Jan-18 19:16 33.437849 -111.997364 97 1118ft 0kts
04-Jan-18 19:17 33.437849 -111.997365 97 1118ft 0kts
04-Jan-18 19:18 33.437814 -111.997923 47 1118ft 2kts
04-Jan-18 19:19 33.437523 -111.998057 359 1118ft 0kts
04-Jan-18 19:20 33.437523 -111.998057 359 1118ft 0kts
04-Jan-18 19:21 33.437524 -111.998057 359 1118ft 0kts
04-Jan-18 19:22 33.437688 -111.998058 359 1118ft 1kts
04-Jan-18 19:23 33.439334 -111.998145 347 1118ft 12kts
04-Jan-18 19:24 33.439694 -111.995130 90 1118ft 15kts
04-Jan-18 19:25 33.439935 -111.992281 5 1118ft 0kts
04-Jan-18 19:26 33.439935 -111.992280 6 1118ft 0kts
04-Jan-18 19:27 33.439935 -111.992280 6 1118ft 0kts
04-Jan-18 19:28 33.440836 -112.003988 269 1118ft 135kts
04-Jan-18 19:29 33.440351 -112.061652 269 3492ft 186kts
04-Jan-18 19:30 33.475433 -112.116497 319 5592ft 255kts
04-Jan-18 19:31 33.533497 -112.170661 346 8555ft 276kts
04-Jan-18 19:32 33.611570 -112.166917 20 11242ft 305kts
04-Jan-18 19:33 33.679044 -112.090099 44 12859ft 358kts
04-Jan-18 19:34 33.749976 -112.005798 25 15165ft 363kts
04-Jan-18 19:35 33.848485 -111.981483 6 17279ft 367kts
04-Jan-18 19:36 33.950331 -111.962296 6 19190ft 376kts
04-Jan-18 19:37 34.054767 -111.942459 6 20895ft 385kts
04-Jan-18 19:38 34.156885 -111.942811 352 22422ft 388kts
04-Jan-18 19:39 34.263681 -111.954606 352 23912ft 394kts
04-Jan-18 19:40 34.373807 -111.966777 352 25225ft 402kts
04-Jan-18 19:41 34.485510 -111.979132 351 26425ft 409kts
04-Jan-18 19:42 34.599264 -111.991709 351 27532ft 415kts
04-Jan-18 19:43 34.714304 -112.004466 351 28538ft 421kts
04-Jan-18 19:44 34.831467 -112.017567 351 29447ft 426kts
04-Jan-18 19:45 34.949134 -112.030828 350 30514ft 425kts
04-Jan-18 19:46 35.066284 -112.044070 349 31570ft 424kts
04-Jan-18 19:47 35.177422 -112.056662 349 32625ft 420kts
04-Jan-18 19:48 35.292743 -112.069776 349 33374ft 424kts
04-Jan-18 19:49 35.410269 -112.082554 350 34097ft 426kts
04-Jan-18 19:50 35.527949 -112.094180 350 34396ft 424kts
04-Jan-18 19:51 35.644587 -112.108013 349 34403ft 424kts
04-Jan-18 19:52 35.761915 -112.122118 349 34404ft 424kts
04-Jan-18 19:53 35.878788 -112.136201 349 34401ft 423kts
04-Jan-18 19:54 35.995389 -112.149169 350 34401ft 424kts
04-Jan-18 19:55 36.105639 -112.159042 350 34403ft 424kts
04-Jan-18 19:56 36.221545 -112.169440 350 34409ft 425kts
04-Jan-18 19:57 36.339194 -112.180027 350 34411ft 425kts
04-Jan-18 19:58 36.456394 -112.190613 350 34407ft 425kts
04-Jan-18 19:59 36.573781 -112.201113 352 34404ft 426kts
04-Jan-18 20:00 36.691162 -112.204876 346 34427ft 423kts
04-Jan-18 20:01 36.807961 -112.221658 350 34392ft 424kts
04-Jan-18 20:02 36.925141 -112.233140 350 34369ft 423kts
04-Jan-18 20:03 37.041953 -112.243949 350 34391ft 423kts
04-Jan-18 20:04 37.154044 -112.254266 349 34424ft 423kts
04-Jan-18 20:05 37.269825 -112.264953 350 34429ft 431kts
04-Jan-18 20:06 37.389818 -112.276027 350 34432ft 434kts
04-Jan-18 20:07 37.509561 -112.287140 350 34432ft 434kts
04-Jan-18 20:08 37.629175 -112.298258 350 34433ft 433kts
04-Jan-18 20:09 37.750106 -112.295391 0 34435ft 443kts
04-Jan-18 20:10 37.872125 -112.278948 359 34434ft 442kts
04-Jan-18 20:11 37.993694 -112.262261 0 34432ft 442kts
04-Jan-18 20:12 38.111004 -112.246030 0 34433ft 442kts
04-Jan-18 20:13 38.232344 -112.229214 359 34438ft 443kts
04-Jan-18 20:14 38.353788 -112.212338 359 34411ft 443kts
04-Jan-18 20:15 38.476110 -112.195289 359 34401ft 442kts
04-Jan-18 20:16 38.597784 -112.178272 360 34399ft 442kts
04-Jan-18 20:17 38.719717 -112.161161 359 34379ft 442kts
04-Jan-18 20:18 38.841422 -112.144261 359 34377ft 442kts
04-Jan-18 20:19 38.960899 -112.127728 359 33629ft 429kts
04-Jan-18 20:20 39.078987 -112.111333 359 31151ft 430kts
04-Jan-18 20:21 39.184038 -112.096687 359 29320ft 420kts
04-Jan-18 20:22 39.293514 -112.081357 0 27434ft 409kts
04-Jan-18 20:23 39.402787 -112.065881 0 25508ft 398kts
04-Jan-18 20:24 39.511460 -112.050445 1 23557ft 401kts
04-Jan-18 20:25 39.619609 -112.035024 1 21536ft 391kts
04-Jan-18 20:26 39.725426 -112.019919 2 19524ft 380kts
04-Jan-18 20:27 39.828289 -112.005188 3 17549ft 370kts
04-Jan-18 20:28 39.927933 -111.990873 3 15619ft 359kts
04-Jan-18 20:29 40.025590 -111.977315 3 15320ft 355kts
04-Jan-18 20:30 40.117329 -111.964659 4 13569ft 348kts
04-Jan-18 20:31 40.210527 -111.951765 4 11910ft 340kts
04-Jan-18 20:32 40.300765 -111.935873 2 11335ft 335kts
04-Jan-18 20:33 40.389725 -111.928631 356 11238ft 289kts
04-Jan-18 20:34 40.460003 -111.936542 354 10739ft 243kts
04-Jan-18 20:35 40.528583 -111.944630 353 9104ft 243kts
04-Jan-18 20:36 40.590447 -111.951721 353 7778ft 194kts
04-Jan-18 20:37 40.641650 -111.957670 354 6830ft 186kts
04-Jan-18 20:38 40.689112 -111.963205 354 5911ft 151kts
04-Jan-18 20:39 40.730220 -111.967970 354 5173ft 149kts
04-Jan-18 20:40 40.771622 -111.972755 354 4330ft 149kts
04-Jan-18 20:41 40.792074 -111.976254 288 4236ft 1kts
04-Jan-18 20:42 40.789633 -111.978230 215 4236ft 8kts
04-Jan-18 20:43 40.789224 -111.978355 187 4236ft 0kts
04-Jan-18 20:44 40.789224 -111.978355 187 4236ft 0kts
04-Jan-18 20:45 40.789224 -111.978355 187 4236ft 0kts
04-Jan-18 20:46 40.789224 -111.978355 187 4236ft 0kts
04-Jan-18 20:47 40.789224 -111.978355 187 4236ft 0kts
04-Jan-18 20:48 40.789224 -111.978355 187 4236ft 0kts
04-Jan-18 20:49 40.789224 -111.978355 187 4236ft 0kts
04-Jan-18 20:50 40.789224 -111.978355 187 4236ft 0kts
04-Jan-18 20:51 40.789224 -111.978355 187 4236ft 0kts
04-Jan-18 20:52 40.789224 -111.978355 187 4236ft 0kts
04-Jan-18 20:53 40.789224 -111.978355 187 4236ft 0kts
04-Jan-18 20:54 40.789224 -111.978355 187 4236ft 0kts
04-Jan-18 20:55 40.789224 -111.978355 187 4236ft 0kts
04-Jan-18 20:56 40.789224 -111.978355 187 4236ft 0kts

Navigation Log

Ident Type
Flight plan parsing failed, navigation log unavailable